createdAt,value
2023-02-08T00:02:45.261Z,62.10
2023-02-08T00:06:27.024Z,62.10
2023-02-08T00:10:10.404Z,62.00
2023-02-08T00:13:52.147Z,62.00
2023-02-08T00:17:33.831Z,62.00
2023-02-08T00:21:16.952Z,61.90
2023-02-08T00:24:58.741Z,61.80
2023-02-08T00:28:40.838Z,61.80
2023-02-08T00:32:22.699Z,61.80
2023-02-08T00:36:06.993Z,61.70
2023-02-08T00:39:48.788Z,61.70
2023-02-08T00:43:31.276Z,61.70
2023-02-08T00:47:13.008Z,61.60
2023-02-08T00:50:59.708Z,61.50
2023-02-08T00:54:42.364Z,61.40
2023-02-08T00:58:24.471Z,61.50
2023-02-08T01:02:07.054Z,62.10
2023-02-08T01:05:48.887Z,61.40
2023-02-08T01:09:30.660Z,61.40
2023-02-08T01:13:12.383Z,61.40
2023-02-08T01:16:54.096Z,61.30
2023-02-08T01:20:37.420Z,61.30
2023-02-08T01:24:19.243Z,61.20
2023-02-08T01:28:01.001Z,61.20
2023-02-08T01:31:44.213Z,61.20
2023-02-08T01:35:26.074Z,61.10
2023-02-08T01:39:10.223Z,61.20
2023-02-08T01:42:51.976Z,61.10
2023-02-08T01:46:36.089Z,61.10
2023-02-08T01:50:19.979Z,61.00
2023-02-08T01:54:05.334Z,61.00
2023-02-08T01:57:48.674Z,61.00
2023-02-08T02:01:31.651Z,61.00
2023-02-08T02:05:14.004Z,60.90
2023-02-08T02:09:19.001Z,60.90
2023-02-08T02:13:22.135Z,60.90
2023-02-08T02:17:04.321Z,60.90
2023-02-08T02:21:09.723Z,60.80
2023-02-08T02:25:10.024Z,60.80
2023-02-08T02:29:29.557Z,60.80
2023-02-08T02:33:17.924Z,60.80
2023-02-08T02:37:17.182Z,60.60
2023-02-08T02:41:44.735Z,60.60
2023-02-08T02:45:45.319Z,60.70
2023-02-08T02:49:31.167Z,60.60
2023-02-08T02:53:35.656Z,60.50
2023-02-08T02:57:30.149Z,60.60
2023-02-08T03:01:12.467Z,60.60
2023-02-08T03:04:56.493Z,60.50
2023-02-08T03:09:19.606Z,60.50
2023-02-08T03:13:22.950Z,60.50
2023-02-08T03:17:15.946Z,60.40
2023-02-08T03:21:21.001Z,60.40
2023-02-08T03:25:09.897Z,60.40
2023-02-08T03:28:51.644Z,60.30
2023-02-08T03:32:56.599Z,60.30
2023-02-08T03:37:05.504Z,60.20
2023-02-08T03:40:52.191Z,60.30
2023-02-08T03:44:38.682Z,60.10
2023-02-08T03:48:23.764Z,60.10
2023-02-08T03:52:09.519Z,60.10
2023-02-08T03:55:58.413Z,60.00
2023-02-08T03:59:43.938Z,60.00
2023-02-08T04:03:28.479Z,60.00
2023-02-08T04:07:10.702Z,60.00
2023-02-08T04:10:52.638Z,60.00
2023-02-08T04:14:34.505Z,60.00
2023-02-08T04:18:16.203Z,60.00
2023-02-08T04:21:57.912Z,60.00
2023-02-08T04:25:39.680Z,60.00
2023-02-08T04:29:21.481Z,60.00
2023-02-08T04:33:03.872Z,59.80
2023-02-08T04:36:45.603Z,59.80
2023-02-08T04:40:27.327Z,59.80
2023-02-08T04:44:09.117Z,59.70
2023-02-08T04:47:51.184Z,59.70
2023-02-08T04:51:32.906Z,59.60
2023-02-08T04:55:14.895Z,59.60
2023-02-08T04:58:56.620Z,59.60
2023-02-08T05:02:38.436Z,59.60
2023-02-08T05:06:20.160Z,59.60
2023-02-08T05:10:02.201Z,59.50
2023-02-08T05:13:43.903Z,59.50
2023-02-08T05:17:25.793Z,59.50
2023-02-08T05:21:07.492Z,59.40
2023-02-08T05:24:49.226Z,59.50
2023-02-08T05:28:30.950Z,59.40
2023-02-08T05:32:12.827Z,59.30
2023-02-08T05:35:54.532Z,59.30
2023-02-08T05:39:36.297Z,59.30
2023-02-08T05:43:18.016Z,59.20
2023-02-08T05:46:59.851Z,59.90
2023-02-08T05:50:41.850Z,59.20
2023-02-08T05:54:23.932Z,59.20
2023-02-08T05:58:05.779Z,59.10
2023-02-08T06:01:47.471Z,59.10
2023-02-08T06:05:29.443Z,59.10
2023-02-08T06:09:11.252Z,59.10
2023-02-08T06:12:52.948Z,59.10
2023-02-08T06:16:34.673Z,59.00
2023-02-08T06:20:16.815Z,59.00
2023-02-08T06:23:58.647Z,59.00
2023-02-08T06:27:40.458Z,58.90
2023-02-08T06:31:22.224Z,58.90
2023-02-08T06:35:04.283Z,58.90
2023-02-08T06:38:46.143Z,58.80
2023-02-08T06:42:28.204Z,58.80
2023-02-08T06:46:10.079Z,58.80
2023-02-08T06:49:52.498Z,58.80
2023-02-08T06:53:34.281Z,58.70
2023-02-08T06:57:16.056Z,58.70
2023-02-08T07:00:57.799Z,58.80
2023-02-08T07:04:39.615Z,58.60
2023-02-08T07:08:21.366Z,58.60
2023-02-08T07:12:05.241Z,58.70
2023-02-08T07:15:47.002Z,58.60
2023-02-08T07:19:29.552Z,58.60
2023-02-08T07:23:11.283Z,58.60
2023-02-08T07:26:53.024Z,58.60
2023-02-08T07:30:34.812Z,58.60
2023-02-08T07:34:21.792Z,58.60
2023-02-08T07:38:03.565Z,59.20
2023-02-08T07:41:45.345Z,58.60
2023-02-08T07:45:27.073Z,58.50
2023-02-08T07:49:09.088Z,58.50
2023-02-08T07:52:50.965Z,58.50
2023-02-08T07:56:32.685Z,58.60
2023-02-08T08:00:16.881Z,58.60
2023-02-08T08:03:58.639Z,58.50
2023-02-08T08:07:40.338Z,58.50
2023-02-08T08:11:22.486Z,58.60
2023-02-08T08:15:04.613Z,58.50
2023-02-08T08:18:48.089Z,58.50
2023-02-08T08:22:29.883Z,58.40
2023-02-08T08:26:17.158Z,58.50
2023-02-08T08:29:59.900Z,58.40
2023-02-08T08:33:41.706Z,58.50
2023-02-08T08:37:23.418Z,59.10
2023-02-08T08:41:14.822Z,58.50
2023-02-08T08:44:56.680Z,58.40
2023-02-08T08:48:38.951Z,58.60
2023-02-08T08:52:20.749Z,58.50
2023-02-08T08:56:02.995Z,58.50
2023-02-08T08:59:44.822Z,58.50
2023-02-08T09:03:28.280Z,58.50
2023-02-08T09:07:10.758Z,58.60
2023-02-08T09:10:52.491Z,58.70
2023-02-08T09:14:34.496Z,58.70
2023-02-08T09:18:16.904Z,58.60
2023-02-08T09:22:00.605Z,58.60
2023-02-08T09:25:42.471Z,58.10
2023-02-08T09:29:24.186Z,57.40
2023-02-08T09:33:05.954Z,57.60
2023-02-08T09:36:47.772Z,58.20
2023-02-08T09:40:46.669Z,58.50
2023-02-08T09:44:47.190Z,58.70
2023-02-08T09:48:34.024Z,58.90
2023-02-08T09:52:21.157Z,59.00
2023-02-08T09:56:11.268Z,59.10
2023-02-08T10:00:15.837Z,59.10
2023-02-08T10:04:12.428Z,59.10
2023-02-08T10:07:54.860Z,59.10
2023-02-08T10:12:05.990Z,59.10
2023-02-08T10:16:03.104Z,59.20
2023-02-08T10:20:20.088Z,59.30
2023-02-08T10:24:22.580Z,59.30
2023-02-08T10:28:42.735Z,59.30
2023-02-08T10:32:35.345Z,59.30
2023-02-08T10:36:21.559Z,59.40
2023-02-08T10:40:35.716Z,59.40
2023-02-08T10:44:54.386Z,59.40
2023-02-08T10:48:54.887Z,59.40
2023-02-08T10:52:36.637Z,59.40
2023-02-08T10:56:30.708Z,59.50
2023-02-08T11:00:36.698Z,59.50
2023-02-08T11:04:19.078Z,59.50
2023-02-08T11:08:25.026Z,59.50
2023-02-08T11:12:16.952Z,59.50
2023-02-08T11:16:01.867Z,59.60
2023-02-08T11:19:46.383Z,59.60
2023-02-08T11:23:33.800Z,59.60
2023-02-08T11:27:39.384Z,59.60
2023-02-08T11:31:21.476Z,59.70
2023-02-08T11:35:20.781Z,59.70
2023-02-08T11:39:17.402Z,59.70
2023-02-08T11:42:59.338Z,59.80
2023-02-08T11:46:48.318Z,59.70
2023-02-08T11:50:39.230Z,59.70
2023-02-08T11:54:41.340Z,59.80
2023-02-08T11:58:26.148Z,59.80
2023-02-08T12:02:29.545Z,59.80
2023-02-08T12:06:32.752Z,59.80
2023-02-08T12:10:20.216Z,59.90
2023-02-08T12:14:23.473Z,59.90
2023-02-08T12:18:12.208Z,59.90
2023-02-08T12:22:04.627Z,59.90
2023-02-08T12:26:19.156Z,59.90
2023-02-08T12:30:26.390Z,59.90
2023-02-08T12:34:13.325Z,59.80
2023-02-08T12:38:40.029Z,59.80
2023-02-08T12:42:31.407Z,59.80
2023-02-08T12:46:19.168Z,59.80
2023-02-08T12:50:21.116Z,59.80
2023-02-08T12:54:13.569Z,59.90
2023-02-08T12:58:20.194Z,59.80
2023-02-08T13:02:25.751Z,59.80
2023-02-08T13:06:13.058Z,59.80
2023-02-08T13:10:05.037Z,59.80
2023-02-08T13:13:55.560Z,59.80
2023-02-08T13:17:51.512Z,59.80
2023-02-08T13:21:41.780Z,59.80
2023-02-08T13:25:37.921Z,59.90
2023-02-08T13:29:20.632Z,59.80
2023-02-08T13:33:18.168Z,60.00
2023-02-08T13:37:03.635Z,60.00
2023-02-08T13:40:46.461Z,60.00
2023-02-08T13:44:34.111Z,60.00
2023-02-08T13:48:17.524Z,60.00
2023-02-08T13:51:59.277Z,60.10
2023-02-08T13:55:53.477Z,60.10
2023-02-08T13:59:36.373Z,60.10
2023-02-08T14:03:22.980Z,60.10
2023-02-08T14:07:30.165Z,60.10
2023-02-08T14:11:31.012Z,60.10
2023-02-08T14:15:15.791Z,60.10
2023-02-08T14:19:00.788Z,60.10
2023-02-08T14:22:51.702Z,60.10
2023-02-08T14:26:35.167Z,60.70
2023-02-08T14:30:16.822Z,60.10
2023-02-08T14:33:58.604Z,60.10
2023-02-08T14:37:42.069Z,60.10
2023-02-08T14:41:42.571Z,60.10
2023-02-08T14:45:39.538Z,60.10
2023-02-08T14:49:21.847Z,60.10
2023-02-08T14:53:07.675Z,60.10
2023-02-08T14:56:56.788Z,60.10
2023-02-08T15:00:39.994Z,60.10
2023-02-08T15:04:22.205Z,60.10
2023-02-08T15:08:04.370Z,60.10
2023-02-08T15:11:56.767Z,60.20
2023-02-08T15:15:43.976Z,60.10
2023-02-08T15:19:38.514Z,60.10
2023-02-08T15:23:22.981Z,60.10
2023-02-08T15:27:21.762Z,60.10
2023-02-08T15:31:11.905Z,60.20
2023-02-08T15:34:56.687Z,60.10
2023-02-08T15:38:39.087Z,60.20
2023-02-08T15:42:26.615Z,60.10
2023-02-08T15:46:23.645Z,60.20
2023-02-08T15:50:07.942Z,60.20
2023-02-08T15:53:52.394Z,60.20
2023-02-08T15:57:45.036Z,58.70
2023-02-08T16:01:27.009Z,58.90
2023-02-08T16:05:22.183Z,59.00
2023-02-08T16:09:04.460Z,59.40
2023-02-08T16:12:54.860Z,59.70
2023-02-08T16:16:39.041Z,59.80
2023-02-08T16:20:31.861Z,60.00
2023-02-08T16:24:15.010Z,59.50
2023-02-08T16:27:56.799Z,59.90
2023-02-08T16:31:46.584Z,60.10
2023-02-08T16:35:29.639Z,60.10
2023-02-08T16:39:14.148Z,60.10
2023-02-08T16:43:33.672Z,60.10
2023-02-08T16:47:28.119Z,60.10
2023-02-08T16:51:17.427Z,60.10
2023-02-08T16:54:59.240Z,60.10
2023-02-08T16:58:41.092Z,60.10
2023-02-08T17:02:22.831Z,60.10
2023-02-08T17:06:05.186Z,60.10
2023-02-08T17:09:46.946Z,60.10
2023-02-08T17:13:28.724Z,60.30
2023-02-08T17:17:10.453Z,60.30
2023-02-08T17:20:57.753Z,60.40
2023-02-08T17:24:39.596Z,60.40
2023-02-08T17:28:22.110Z,60.40
2023-02-08T17:32:03.982Z,60.40
2023-02-08T17:35:50.870Z,60.40
2023-02-08T17:39:32.587Z,60.50
2023-02-08T17:43:14.346Z,60.50
2023-02-08T17:46:56.105Z,60.50
2023-02-08T17:50:40.156Z,60.50
2023-02-08T17:54:21.936Z,60.50
2023-02-08T17:58:03.688Z,60.50
2023-02-08T18:01:45.693Z,60.50
2023-02-08T18:05:28.597Z,60.50
2023-02-08T18:09:10.325Z,60.60
2023-02-08T18:12:52.070Z,60.60
2023-02-08T18:16:35.780Z,60.60
2023-02-08T18:20:18.034Z,60.60
2023-02-08T18:24:04.821Z,60.60
2023-02-08T18:27:46.711Z,60.60
2023-02-08T18:31:28.978Z,60.60
2023-02-08T18:35:11.076Z,60.70
2023-02-08T18:38:55.601Z,60.60
2023-02-08T18:42:37.378Z,60.70
2023-02-08T18:46:21.844Z,60.70
2023-02-08T18:50:04.320Z,60.60
2023-02-08T18:53:53.435Z,60.70
2023-02-08T18:57:38.783Z,60.70
2023-02-08T19:01:23.120Z,60.70
2023-02-08T19:05:05.360Z,60.70
2023-02-08T19:08:47.190Z,60.70
2023-02-08T19:12:28.970Z,60.70
2023-02-08T19:16:11.620Z,60.70
2023-02-08T19:19:53.370Z,60.70
2023-02-08T19:23:35.544Z,60.70
2023-02-08T19:27:17.257Z,60.70
2023-02-08T19:31:09.661Z,60.70
2023-02-08T19:34:51.528Z,60.70
2023-02-08T19:38:33.235Z,60.70
2023-02-08T19:42:14.952Z,60.70
2023-02-08T19:45:58.172Z,60.70
2023-02-08T19:49:40.011Z,60.70
2023-02-08T19:53:21.722Z,61.40
2023-02-08T19:57:03.648Z,60.70
2023-02-08T20:00:45.395Z,60.60
2023-02-08T20:04:27.362Z,60.60
2023-02-08T20:08:09.150Z,60.70
2023-02-08T20:11:57.254Z,60.60
2023-02-08T20:15:41.933Z,60.60
2023-02-08T20:19:24.526Z,60.70
2023-02-08T20:23:20.883Z,60.70
2023-02-08T20:27:05.487Z,60.70
2023-02-08T20:30:47.239Z,60.70
2023-02-08T20:34:29.046Z,60.60
2023-02-08T20:38:10.768Z,60.60
2023-02-08T20:41:52.477Z,60.60
2023-02-08T20:45:34.165Z,60.60
2023-02-08T20:49:21.385Z,61.20
2023-02-08T20:53:03.127Z,60.60
2023-02-08T20:56:44.915Z,60.60
2023-02-08T21:00:40.244Z,60.60
2023-02-08T21:04:28.356Z,60.70
2023-02-08T21:08:10.067Z,60.00
2023-02-08T21:11:52.344Z,60.20
2023-02-08T21:15:34.507Z,60.40
2023-02-08T21:19:17.294Z,60.50
2023-02-08T21:22:59.104Z,60.60
2023-02-08T21:26:41.175Z,60.60
2023-02-08T21:30:22.961Z,60.70
2023-02-08T21:34:05.993Z,60.70
2023-02-08T21:37:47.774Z,60.70
2023-02-08T21:41:32.215Z,60.70
2023-02-08T21:45:14.121Z,60.70
2023-02-08T21:49:16.021Z,60.70
2023-02-08T21:53:16.478Z,60.70
2023-02-08T21:56:58.818Z,60.70
2023-02-08T22:00:40.621Z,60.70
2023-02-08T22:04:22.473Z,60.70
2023-02-08T22:08:04.668Z,60.70
2023-02-08T22:11:48.951Z,60.70
2023-02-08T22:15:31.152Z,60.70
2023-02-08T22:19:12.968Z,60.70
2023-02-08T22:22:55.515Z,60.70
2023-02-08T22:26:37.283Z,60.60
2023-02-08T22:30:19.923Z,60.60
2023-02-08T22:34:01.864Z,60.60
2023-02-08T22:37:43.751Z,60.60
2023-02-08T22:41:25.540Z,60.60
2023-02-08T22:45:07.785Z,60.60
2023-02-08T22:48:49.538Z,60.60
2023-02-08T22:52:34.240Z,60.60
2023-02-08T22:56:17.406Z,60.50
2023-02-08T22:59:59.196Z,60.60
2023-02-08T23:03:41.081Z,60.60
2023-02-08T23:07:22.968Z,60.50
2023-02-08T23:11:06.428Z,60.60
2023-02-08T23:14:49.700Z,60.50
2023-02-08T23:18:31.492Z,60.50
2023-02-08T23:22:13.367Z,60.50
2023-02-08T23:25:55.078Z,60.60
2023-02-08T23:29:36.860Z,60.50
2023-02-08T23:33:18.635Z,60.50
2023-02-08T23:37:00.335Z,60.50
2023-02-08T23:40:42.205Z,60.50
2023-02-08T23:44:25.045Z,60.50
2023-02-08T23:48:06.801Z,60.40
2023-02-08T23:51:48.511Z,60.40
2023-02-08T23:55:30.713Z,60.40
2023-02-08T23:59:12.508Z,60.40
